| time (UTC) | temp C | wind direction | speed KPH | gust KPH | rain 1hr cm | rain 24hr cm | rain mn cm | humidity % | barometer mb |
| 20260504194825 | 15 | 227 | 20.9 | 33.8 | 0.00 | 0.00 | 0.00 | 78 | 1010.6 |
| 20260504193824 | 15 | 222 | 19.3 | 32.2 | 0.00 | 0.00 | 0.00 | 77 | 1010.7 |
| 20260504193323 | 15 | 224 | 19.3 | 32.2 | 0.00 | 0.00 | 0.00 | 77 | 1010.7 |
| 20260504192824 | 16 | 244 | 17.7 | 32.2 | 0.00 | 0.00 | 0.00 | 78 | 1010.8 |
| 20260504192324 | 15 | 257 | 17.7 | 29.0 | 0.00 | 0.00 | 0.00 | 77 | 1010.8 |
| 20260504191824 | 16 | 262 | 19.3 | 33.8 | 0.00 | 0.00 | 0.00 | 77 | 1010.8 |
| 20260504191324 | 15 | 224 | 19.3 | 33.8 | 0.00 | 0.00 | 0.00 | 77 | 1010.8 |
| 20260504190824 | 15 | 220 | 17.7 | 29.0 | 0.00 | 0.00 | 0.00 | 78 | 1010.9 |
| 20260504190324 | 15 | 252 | 19.3 | 33.8 | 0.00 | 0.00 | 0.00 | 78 | 1010.9 |
| 20260504185824 | 15 | 228 | 19.3 | 33.8 | 0.00 | 0.00 | 0.00 | 79 | 1010.9 |
| 20260504185323 | 15 | 229 | 19.3 | 33.8 | 0.00 | 0.00 | 0.00 | 78 | 1011.0 |
| 20260504184824 | 15 | 233 | 19.3 | 33.8 | 0.00 | 0.00 | 0.00 | 78 | 1011.1 |
| 20260504184323 | 15 | 232 | 16.1 | 30.6 | 0.00 | 0.00 | 0.00 | 77 | 1011.1 |
| 20260504183824 | 15 | 231 | 17.7 | 29.0 | 0.00 | 0.00 | 0.00 | 78 | 1011.2 |
| 20260504183325 | 15 | 261 | 17.7 | 32.2 | 0.00 | 0.00 | 0.00 | 77 | 1011.2 |
| 20260504182819 | 15 | 250 | 19.3 | 32.2 | 0.00 | 0.00 | 0.00 | 77 | 1011.2 |
| 20260504182312 | 15 | 219 | 19.3 | 32.2 | 0.00 | 0.00 | 0.00 | 78 | 1011.3 |
| 20260504181807 | 15 | 214 | 19.3 | 30.6 | 0.00 | 0.00 | 0.00 | 79 | 1011.4 |
| 20260504181301 | 15 | 250 | 19.3 | 30.6 | 0.00 | 0.00 | 0.00 | 78 | 1011.4 |
| 20260504180755 | 15 | 222 | 17.7 | 29.0 | 0.00 | 0.00 | 0.00 | 79 | 1011.5 |
| 20260504180248 | 15 | 248 | 16.1 | 27.4 | 0.00 | 0.00 | 0.00 | 79 | 1011.6 |
| 20260504175742 | 15 | 211 | 14.5 | 25.7 | 0.00 | 0.00 | 0.00 | 80 | 1011.6 |
| 20260504175237 | 15 | 269 | 14.5 | 27.4 | 0.00 | 0.00 | 0.00 | 80 | 1011.5 |
| 20260504174731 | 15 | 234 | 16.1 | 32.2 | 0.00 | 0.00 | 0.00 | 79 | 1011.5 |
| 20260504173718 | 15 | 210 | 16.1 | 29.0 | 0.00 | 0.00 | 0.00 | 80 | 1011.6 |
| 20260504173218 | 15 | 207 | 16.1 | 27.4 | 0.00 | 0.00 | 0.00 | 81 | 1011.7 |
| 20260504172717 | 15 | 225 | 16.1 | 27.4 | 0.00 | 0.00 | 0.00 | 81 | 1011.8 |
| 20260504172218 | 15 | 259 | 14.5 | 25.7 | 0.00 | 0.00 | 0.00 | 81 | 1011.8 |
| 20260504171719 | 15 | 222 | 14.5 | 25.7 | 0.00 | 0.00 | 0.00 | 81 | 1012.0 |
| 20260504171219 | 15 | 231 | 16.1 | 27.4 | 0.00 | 0.00 | 0.00 | 81 | 1012.1 |
| 20260504170717 | 15 | 280 | 16.1 | 27.4 | 0.00 | 0.00 | 0.00 | 81 | 1012.1 |
| 20260504150712 | 14 | 238 | 14.5 | 24.1 | 0.00 | 0.00 | 0.00 | 77 | 1013.2 |
| 20260504150212 | 14 | 260 | 14.5 | 25.7 | 0.00 | 0.00 | 0.00 | 76 | 1013.3 |
| 20260504141206 | 14 | 238 | 12.9 | 24.1 | 0.00 | 0.00 | 0.00 | 77 | 1013.3 |
| 20260504140705 | 14 | 217 | 12.9 | 24.1 | 0.00 | 0.00 | 0.00 | 77 | 1013.3 |
| 20260504140202 | 14 | 249 | 12.9 | 20.9 | 0.00 | 0.00 | 0.00 | 76 | 1013.3 |
| 20260504130655 | 13 | 248 | 12.9 | 25.7 | 0.00 | 0.00 | 0.00 | 73 | 1013.9 |
| 20260504130155 | 13 | 285 | 12.9 | 25.7 | 0.00 | 0.00 | 0.00 | 72 | 1013.9 |
| 20260504120126 | 12 | 271 | 12.9 | 27.4 | 0.00 | 0.00 | 0.00 | 72 | 1014.0 |
| 20260504110519 | 11 | 257 | 6.4 | 17.7 | 0.00 | 0.00 | 0.00 | 70 | 1014.0 |
| 20260504081837 | 10 | 253 | 3.2 | 8.0 | 0.00 | 0.00 | 0.00 | 73 | 1013.1 |
| 20260504081335 | 10 | 247 | 3.2 | 8.0 | 0.00 | 0.00 | 0.00 | 73 | 1013.0 |
| 20260504080832 | 10 | 250 | 3.2 | 8.0 | 0.00 | 0.00 | 0.00 | 72 | 1013.1 |
| 20260504080330 | 10 | 254 | 3.2 | 8.0 | 0.00 | 0.00 | 0.00 | 72 | 1013.0 |
| 20260504070344 | 10 | 278 | 1.6 | 6.4 | 0.00 | 0.00 | 0.00 | 67 | 1012.6 |
| 20260504050615 | 10 | 263 | 3.2 | 6.4 | 0.00 | 0.00 | 0.00 | 71 | 1012.2 |
| 20260504050115 | 10 | 240 | 3.2 | 9.7 | 0.00 | 0.00 | 0.00 | 71 | 1012.2 |
| 20260504045615 | 10 | 257 | 3.2 | 9.7 | 0.00 | 0.00 | 0.00 | 71 | 1012.1 |
| 20260504045115 | 10 | 253 | 4.8 | 12.9 | 0.00 | 0.00 | 0.00 | 71 | 1012.2 |
| 20260504044539 | 10 | 277 | 4.8 | 12.9 | 0.00 | 0.00 | 0.00 | 71 | 1012.2 |
| 20260504044037 | 10 | 255 | 4.8 | 12.9 | 0.00 | 0.00 | 0.00 | 71 | 1012.3 |
| 20260504042933 | 10 | 258 | 3.2 | 9.7 | 0.00 | 0.00 | 0.00 | 69 | 1012.2 |
| 20260504042430 | 10 | 276 | 3.2 | 9.7 | 0.00 | 0.00 | 0.00 | 69 | 1012.2 |
| 20260504041932 | 10 | 245 | 1.6 | 4.8 | 0.00 | 0.00 | 0.00 | 69 | 1012.1 |
| 20260504040912 | 10 | 284 | 1.6 | 3.2 | 0.00 | 0.00 | 0.00 | 69 | 1012.0 |
| 20260504040411 | 10 | 252 | 1.6 | 6.4 | 0.00 | 0.00 | 0.00 | 68 | 1012.1 |
| 20260504035911 | 10 | 246 | 1.6 | 8.0 | 0.00 | 0.00 | 0.00 | 68 | 1012.1 |
| 20260504035410 | 10 | 232 | 1.6 | 8.0 | 0.00 | 0.00 | 0.00 | 69 | 1012.1 |
| 20260504034911 | 10 | 250 | 1.6 | 6.4 | 0.00 | 0.00 | 0.00 | 69 | 1012.0 |
| 20260504034411 | 10 | 282 | 1.6 | 4.8 | 0.00 | 0.00 | 0.00 | 70 | 1012.0 |
| 20260504033911 | 10 | 276 | 1.6 | 9.7 | 0.00 | 0.00 | 0.00 | 70 | 1011.9 |
| 20260504033409 | 10 | 263 | 3.2 | 9.7 | 0.00 | 0.00 | 0.00 | 69 | 1011.9 |
| 20260504032907 | 10 | 270 | 3.2 | 8.0 | 0.00 | 0.00 | 0.00 | 69 | 1011.9 |
| 20260504032404 | 10 | 287 | 3.2 | 8.0 | 0.00 | 0.00 | 0.00 | 70 | 1011.9 |
| 20260504031902 | 10 | 259 | 1.6 | 8.0 | 0.00 | 0.00 | 0.00 | 70 | 1011.9 |
| 20260504030857 | 10 | 257 | 1.6 | 4.8 | 0.00 | 0.00 | 0.00 | 70 | 1011.9 |
| 20260504030352 | 10 | 256 | 1.6 | 6.4 | 0.00 | 0.00 | 0.00 | 71 | 1011.9 |
| 20260504025853 | 10 | 276 | 1.6 | 6.4 | 0.00 | 0.00 | 0.00 | 73 | 1011.9 |
| 20260504025352 | 10 | 280 | 0.0 | 3.2 | 0.00 | 0.00 | 0.00 | 74 | 1011.9 |
| 20260504024817 | 10 | 280 | 1.6 | 4.8 | 0.00 | 0.00 | 0.00 | 75 | 1011.9 |
| 20260504024316 | 10 | 280 | 1.6 | 4.8 | 0.00 | 0.00 | 0.00 | 76 | 1011.9 |
| 20260504023312 | 10 | 281 | 0.0 | 3.2 | 0.00 | 0.00 | 0.00 | 75 | 1012.0 |
| 20260504022810 | 9 | 281 | 0.0 | 0.0 | 0.00 | 0.00 | 0.00 | 74 | 1012.0 |
| 20260504022311 | 9 | 281 | 0.0 | 0.0 | 0.00 | 0.00 | 0.00 | 71 | 1011.9 |
| 20260504021807 | 9 | 281 | 0.0 | 0.0 | 0.00 | 0.00 | 0.00 | 67 | 1011.9 |
| 20260504020804 | 9 | 281 | 0.0 | 1.6 | 0.00 | 0.00 | 0.00 | 62 | 1011.8 |
| 20260504020302 | 9 | 281 | 0.0 | 1.6 | 0.00 | 0.00 | 0.00 | 61 | 1011.8 |
| 20260504015802 | 8 | 281 | 0.0 | 1.6 | 0.00 | 0.00 | 0.00 | 59 | 1011.8 |
| 20260504015304 | 8 | 281 | 0.0 | 1.6 | 0.00 | 0.00 | 0.00 | 59 | 1011.8 |
| 20260504014803 | 8 | 281 | 0.0 | 0.0 | 0.00 | 0.00 | 0.00 | 59 | 1011.8 |
| 20260504014257 | 9 | 281 | 0.0 | 0.0 | 0.00 | 0.00 | 0.00 | 63 | 1011.7 |
| 20260504013751 | 9 | 281 | 0.0 | 0.0 | 0.00 | 0.00 | 0.00 | 64 | 1011.7 |
| 20260504013244 | 9 | 281 | 0.0 | 0.0 | 0.00 | 0.00 | 0.00 | 57 | 1011.6 |
| 20260504012738 | 9 | 281 | 0.0 | 0.0 | 0.00 | 0.00 | 0.00 | 56 | 1011.6 |
| 20260504012232 | 9 | 281 | 0.0 | 0.0 | 0.00 | 0.00 | 0.00 | 57 | 1011.5 |
| 20260504011221 | 10 | 281 | 0.0 | 0.0 | 0.00 | 0.00 | 0.00 | 65 | 1011.4 |
| 20260504010634 | 10 | 281 | 0.0 | 0.0 | 0.00 | 0.00 | 0.00 | 68 | 1011.4 |
| 20260504010134 | 10 | 281 | 0.0 | 0.0 | 0.00 | 0.00 | 0.00 | 52 | 1011.2 |
| 20260504005635 | 10 | 281 | 0.0 | 0.0 | 0.00 | 0.00 | 0.00 | 50 | 1011.1 |
| 20260504004631 | 10 | 281 | 0.0 | 0.0 | 0.00 | 0.00 | 0.00 | 48 | 1011.0 |
| 20260504004133 | 11 | 281 | 0.0 | 0.0 | 0.00 | 0.00 | 0.00 | 46 | 1010.9 |
| 20260504003631 | 11 | 281 | 0.0 | 0.0 | 0.00 | 0.00 | 0.00 | 45 | 1010.9 |
| 20260504003128 | 11 | 281 | 0.0 | 0.0 | 0.00 | 0.00 | 0.00 | 44 | 1010.8 |
| 20260504002126 | 12 | 281 | 0.0 | 3.2 | 0.00 | 0.00 | 0.00 | 42 | 1010.7 |
| 20260504001625 | 12 | 281 | 0.0 | 3.2 | 0.00 | 0.00 | 0.00 | 41 | 1010.6 |
| 20260504001122 | 12 | 281 | 0.0 | 1.6 | 0.00 | 0.00 | 0.00 | 40 | 1010.7 |
| 20260504000623 | 13 | 282 | 0.0 | 4.8 | 0.00 | 0.00 | 0.00 | 40 | 1010.6 |
| 20260504000121 | 13 | 282 | 1.6 | 6.4 | 0.00 | 0.00 | 0.00 | 39 | 1010.5 |
| 20260503235618 | 13 | 283 | 1.6 | 9.7 | 0.00 | 0.00 | 0.00 | 38 | 1010.4 |
| 20260503234119 | 13 | 314 | 4.8 | 11.3 | 0.00 | 0.00 | 0.00 | 37 | 1010.2 |
| 20260503233617 | 14 | 285 | 3.2 | 11.3 | 0.00 | 0.00 | 0.00 | 36 | 1010.1 |
| 20260503233115 | 14 | 282 | 3.2 | 11.3 | 0.00 | 0.00 | 0.00 | 37 | 1010.1 |
| 20260503232616 | 14 | 284 | 3.2 | 9.7 | 0.00 | 0.00 | 0.00 | 36 | 1010.0 |
| 20260503232116 | 15 | 284 | 3.2 | 11.3 | 0.00 | 0.00 | 0.00 | 35 | 1010.0 |
| 20260503231112 | 15 | 287 | 6.4 | 17.7 | 0.00 | 0.00 | 0.00 | 35 | 1009.9 |
| 20260503230613 | 15 | 295 | 6.4 | 20.9 | 0.00 | 0.00 | 0.00 | 34 | 1009.9 |
| 20260503230109 | 15 | 283 | 6.4 | 20.9 | 0.00 | 0.00 | 0.00 | 34 | 1009.9 |
| 20260503225111 | 15 | 316 | 6.4 | 25.7 | 0.00 | 0.00 | 0.00 | 34 | 1009.8 |
| 20260503224611 | 15 | 307 | 8.0 | 25.7 | 0.00 | 0.00 | 0.00 | 34 | 1009.8 |
| 20260503224111 | 15 | 274 | 9.7 | 24.1 | 0.00 | 0.00 | 0.00 | 34 | 1009.7 |
| 20260503223609 | 15 | 321 | 9.7 | 27.4 | 0.00 | 0.00 | 0.00 | 35 | 1009.8 |
| 20260503223110 | 15 | 320 | 9.7 | 27.4 | 0.00 | 0.00 | 0.00 | 34 | 1009.7 |
| 20260503222611 | 15 | 314 | 9.7 | 29.0 | 0.00 | 0.00 | 0.00 | 34 | 1009.7 |
| 20260503222107 | 15 | 293 | 9.7 | 29.0 | 0.00 | 0.00 | 0.00 | 34 | 1009.5 |
| 20260503221605 | 15 | 298 | 6.4 | 14.5 | 0.00 | 0.00 | 0.00 | 35 | 1009.6 |
| 20260503221105 | 15 | 302 | 8.0 | 30.6 | 0.00 | 0.00 | 0.00 | 35 | 1009.5 |
| 20260503220603 | 15 | 278 | 8.0 | 30.6 | 0.00 | 0.00 | 0.00 | 35 | 1009.5 |
| 20260503215604 | 15 | 285 | 11.3 | 24.1 | 0.00 | 0.00 | 0.00 | 36 | 1009.6 |
| 20260503215104 | 15 | 323 | 11.3 | 32.2 | 0.00 | 0.00 | 0.00 | 35 | 1009.5 |
| 20260503214603 | 15 | 265 | 11.3 | 32.2 | 0.00 | 0.00 | 0.00 | 36 | 1009.6 |
| 20260503214103 | 15 | 282 | 11.3 | 24.1 | 0.00 | 0.00 | 0.00 | 37 | 1009.5 |
| 20260503213605 | 15 | 254 | 11.3 | 24.1 | 0.00 | 0.00 | 0.00 | 36 | 1009.4 |
| 20260503213105 | 15 | 153 | 9.7 | 24.1 | 0.00 | 0.00 | 0.00 | 37 | 1009.4 |
| 20260503212533 | 14 | 303 | 11.3 | 25.7 | 0.00 | 0.00 | 0.00 | 38 | 1009.3 |
| 20260503212033 | 15 | 293 | 11.3 | 37.0 | 0.00 | 0.00 | 0.00 | 37 | 1009.4 |
| 20260503211533 | 15 | 306 | 9.7 | 37.0 | 0.00 | 0.00 | 0.00 | 38 | 1009.3 |
| 20260503211034 | 14 | 309 | 9.7 | 27.4 | 0.00 | 0.00 | 0.00 | 38 | 1009.4 |
| 20260503210534 | 14 | 297 | 9.7 | 27.4 | 0.00 | 0.00 | 0.00 | 40 | 1009.3 |
| 20260503210033 | 14 | 272 | 11.3 | 27.4 | 0.00 | 0.00 | 0.00 | 38 | 1009.4 |
| 20260503205537 | 14 | 294 | 12.9 | 30.6 | 0.00 | 0.00 | 0.00 | 40 | 1009.3 |
| 20260503205036 | 14 | 279 | 12.9 | 30.6 | 0.00 | 0.00 | 0.00 | 40 | 1009.3 |
| 20260503204533 | 14 | 27 | 11.3 | 30.6 | 0.00 | 0.00 | 0.00 | 40 | 1009.2 |
| 20260503204033 | 14 | 286 | 12.9 | 32.2 | 0.00 | 0.00 | 0.00 | 40 | 1009.3 |
| 20260503203531 | 14 | 290 | 9.7 | 32.2 | 0.00 | 0.00 | 0.00 | 41 | 1009.2 |
| 20260503203032 | 14 | 348 | 8.0 | 20.9 | 0.00 | 0.00 | 0.00 | 42 | 1009.3 |
| 20260503202032 | 13 | 338 | 9.7 | 24.1 | 0.00 | 0.00 | 0.00 | 43 | 1009.3 |
| 20260503201526 | 13 | 263 | 8.0 | 20.9 | 0.00 | 0.00 | 0.00 | 43 | 1009.5 |
| 20260503201022 | 13 | 127 | 9.7 | 25.7 | 0.00 | 0.00 | 0.00 | 43 | 1009.4 |
| 20260503200519 | 13 | 278 | 9.7 | 25.7 | 0.00 | 0.00 | 0.00 | 43 | 1009.4 |
| 20260503200021 | 13 | 193 | 11.3 | 37.0 | 0.00 | 0.00 | 0.00 | 45 | 1009.5 |
| 20260503195518 | 12 | 266 | 11.3 | 37.0 | 0.00 | 0.00 | 0.00 | 43 | 1009.7 |